Main page
METAR-TAF:

METAR-TAF

Airports :

RAF Cranwell

Cranwell, England

latitude: 53-02N, longitude: 000-30W, elevation: 67 m

Current weather observation

The report was made 43 minutes ago, at 20:20 UTC
Wind 16 kt from the South
Temperature 16°C
Humidity 59%
Pressure 1007 hPa

METAR: EGYD 252020Z AUTO 18016KT //// BKN069/// BKN096/// 16/08 Q1007

Time: 22:03 (21:03 UTC)

Forecast

The report was made 7 hours and 31 minutes ago, at 13:32 UTC
Forecast valid from 25 at 15 UTC to 25 at 18 UTC
Wind 17 kt from the South with gusts up to 27 kt
Visibility 10 km or more
no clouds below 1500 m and no cumulonimbus

TAF: EGYD 251332Z 2515/2518 18017G27KT CAVOK

Weather observations and forecasts of more than 4000 airports (METAR and TAF reports).

The available stations are represented by yellow and red dots on the map.

Hover mouse over dot to see the name of the station.

Then click to see weather observations and forecasts.

To change the map : click on the green buttons with a black cross to zoom in, on the green button with a dash to zoom out, or on the green arrows for adjacent maps.


METAR-TAF: